Hasselt, Belgium
Current Conditions -  °F | °C
As of 2:25 AM on Saturday 25 Oct 2014 (Local Time) from EBDT Reporting Station
Broken Clouds Broken Clouds  
Wind Chill: 52°   Ceiling: 700
Heat Index: 52°   Visibility: 2.5mi
Dew Point: 52°   Wind: 7mph
Humidity: 100%   Direction: 190°S
Pressure: 30.03"   Gusts: NA
Location:  50.93°N, 5.34°E
Report Text: EBDT 250025Z AUTO 19006KT 4000 FEW004/// BKN007/// BKN009/// 11/11 Q1017 GRN
Loading
Personal Weather Stations






























Interactive Weather Map
Tropical Storm Tracking
New forecast layout! Learn more

10-Day Weather Forecast

Advertisements
Track Severe Weather on mobile